createdAt,value
2022-12-31T00:01:58.644Z,3.76
2022-12-31T00:05:01.879Z,3.76
2022-12-31T00:08:04.889Z,3.93
2022-12-31T00:11:07.830Z,3.89
2022-12-31T00:14:10.394Z,3.73
2022-12-31T00:17:13.476Z,3.72
2022-12-31T00:20:16.807Z,3.80
2022-12-31T00:23:19.839Z,3.69
2022-12-31T00:26:25.113Z,3.71
2022-12-31T00:29:28.401Z,3.79
2022-12-31T00:32:31.186Z,3.91
2022-12-31T00:35:36.422Z,3.94
2022-12-31T00:38:40.562Z,3.92
2022-12-31T00:41:44.192Z,3.67
2022-12-31T00:44:46.759Z,3.74
2022-12-31T00:47:49.535Z,3.65
2022-12-31T00:50:52.836Z,3.68
2022-12-31T00:53:57.184Z,3.61
2022-12-31T00:56:59.799Z,3.78
2022-12-31T01:00:02.776Z,4.19
2022-12-31T01:03:06.252Z,4.02
2022-12-31T01:06:09.897Z,4.00
2022-12-31T01:09:14.303Z,3.94
2022-12-31T01:12:17.253Z,4.10
2022-12-31T01:15:19.718Z,4.09
2022-12-31T01:18:22.665Z,3.80
2022-12-31T01:21:25.497Z,3.83
2022-12-31T01:24:28.485Z,3.91
2022-12-31T01:27:31.087Z,3.91
2022-12-31T01:30:39.789Z,3.94
2022-12-31T01:33:43.238Z,4.21
2022-12-31T01:36:46.402Z,4.01
2022-12-31T01:39:49.954Z,3.93
2022-12-31T01:42:58.513Z,4.17
2022-12-31T01:46:01.143Z,4.10
2022-12-31T01:49:11.107Z,4.12
2022-12-31T01:52:22.685Z,4.21
2022-12-31T01:55:48.948Z,4.10
2022-12-31T01:58:55.223Z,3.97
2022-12-31T02:01:59.570Z,4.10
2022-12-31T02:05:09.859Z,4.29
2022-12-31T02:08:12.795Z,4.23
2022-12-31T02:11:31.354Z,4.17
2022-12-31T02:14:43.668Z,4.10
2022-12-31T02:18:07.119Z,4.30
2022-12-31T02:21:24.912Z,4.24
2022-12-31T02:24:33.624Z,3.95
2022-12-31T02:27:42.251Z,3.95
2022-12-31T02:30:50.460Z,4.12
2022-12-31T02:34:01.424Z,3.92
2022-12-31T02:37:09.739Z,3.97
2022-12-31T02:40:18.953Z,4.02
2022-12-31T02:43:21.827Z,4.10
2022-12-31T02:46:45.421Z,4.04
2022-12-31T02:50:18.651Z,4.09
2022-12-31T02:53:26.476Z,3.98
2022-12-31T02:56:39.409Z,4.13
2022-12-31T03:00:35.192Z,4.11
2022-12-31T03:03:39.356Z,4.45
2022-12-31T03:06:43.007Z,4.32
2022-12-31T03:09:45.844Z,4.22
2022-12-31T03:12:49.090Z,4.30
2022-12-31T03:15:52.031Z,4.33
2022-12-31T03:19:13.111Z,4.30
2022-12-31T03:22:27.709Z,4.38
2022-12-31T03:25:33.413Z,4.37
2022-12-31T03:28:38.138Z,5.23
2022-12-31T03:31:41.109Z,4.87
2022-12-31T03:34:44.246Z,4.61
2022-12-31T03:37:48.199Z,4.56
2022-12-31T03:40:54.050Z,4.62
2022-12-31T03:43:56.563Z,4.57
2022-12-31T03:46:59.369Z,4.38
2022-12-31T03:50:02.168Z,4.72
2022-12-31T03:53:05.650Z,4.40
2022-12-31T03:56:08.261Z,4.42
2022-12-31T03:59:11.400Z,4.53
2022-12-31T04:02:14.302Z,4.55
2022-12-31T04:05:18.606Z,4.46
2022-12-31T04:08:24.556Z,4.44
2022-12-31T04:11:27.492Z,4.59
2022-12-31T04:14:30.259Z,4.66
2022-12-31T04:17:33.439Z,4.79
2022-12-31T04:20:36.388Z,4.72
2022-12-31T04:23:39.768Z,4.68
2022-12-31T04:26:44.060Z,4.66
2022-12-31T04:29:47.219Z,4.55
2022-12-31T04:32:49.994Z,4.55
2022-12-31T04:35:53.095Z,4.49
2022-12-31T04:38:56.538Z,4.59
2022-12-31T04:41:59.357Z,4.60
2022-12-31T04:45:02.518Z,4.70
2022-12-31T04:48:06.388Z,4.48
2022-12-31T04:51:09.072Z,4.61
2022-12-31T04:54:11.957Z,4.44
2022-12-31T04:57:14.641Z,4.58
2022-12-31T05:00:17.812Z,4.52
2022-12-31T05:03:22.016Z,4.45
2022-12-31T05:06:25.261Z,4.60
2022-12-31T05:09:28.438Z,4.73
2022-12-31T05:12:31.652Z,4.68
2022-12-31T05:15:35.028Z,4.76
2022-12-31T05:18:38.257Z,4.64
2022-12-31T05:21:40.910Z,4.57
2022-12-31T05:24:43.736Z,4.58
2022-12-31T05:27:46.541Z,4.60
2022-12-31T05:30:50.832Z,4.73
2022-12-31T05:33:53.899Z,4.51
2022-12-31T05:36:56.671Z,4.26
2022-12-31T05:39:59.674Z,4.21
2022-12-31T05:43:02.529Z,4.21
2022-12-31T05:46:05.496Z,4.48
2022-12-31T05:49:08.360Z,4.42
2022-12-31T05:52:11.249Z,4.21
2022-12-31T05:55:14.303Z,4.25
2022-12-31T05:58:18.149Z,4.31
2022-12-31T06:01:21.516Z,4.00
2022-12-31T06:04:25.244Z,4.12
2022-12-31T06:07:28.734Z,4.26
2022-12-31T06:10:31.828Z,4.23
2022-12-31T06:13:35.147Z,4.02
2022-12-31T06:16:40.185Z,4.10
2022-12-31T06:19:43.008Z,4.22
2022-12-31T06:22:45.824Z,4.33
2022-12-31T06:25:48.573Z,4.20
2022-12-31T06:28:51.540Z,3.97
2022-12-31T06:31:54.156Z,3.98
2022-12-31T06:34:57.193Z,4.10
2022-12-31T06:38:00.462Z,4.16
2022-12-31T06:41:04.923Z,3.92
2022-12-31T06:44:07.566Z,4.02
2022-12-31T06:47:10.550Z,4.19
2022-12-31T06:50:13.271Z,4.34
2022-12-31T06:53:16.468Z,4.16
2022-12-31T06:56:33.055Z,4.17
2022-12-31T06:59:36.992Z,4.70
2022-12-31T07:02:50.305Z,4.49
2022-12-31T07:06:01.887Z,4.67
2022-12-31T07:09:26.526Z,4.42
2022-12-31T07:13:06.673Z,4.66
2022-12-31T07:16:33.600Z,4.61
2022-12-31T07:19:47.537Z,4.29
2022-12-31T07:22:52.785Z,4.25
2022-12-31T07:26:06.718Z,4.39
2022-12-31T07:29:35.588Z,4.17
2022-12-31T07:32:59.484Z,5.16
2022-12-31T07:36:29.851Z,4.92
2022-12-31T07:39:46.662Z,5.47
2022-12-31T07:42:55.281Z,5.24
2022-12-31T07:46:04.597Z,5.21
2022-12-31T07:49:14.338Z,5.27
2022-12-31T07:52:17.735Z,5.16
2022-12-31T07:55:20.303Z,4.58
2022-12-31T07:58:33.161Z,4.62
2022-12-31T08:01:48.415Z,4.78
2022-12-31T08:05:11.829Z,4.67
2022-12-31T08:08:23.815Z,4.51
2022-12-31T08:11:38.046Z,4.73
2022-12-31T08:14:47.082Z,4.58
2022-12-31T08:17:51.393Z,4.77
2022-12-31T08:21:15.683Z,4.97
2022-12-31T08:24:30.781Z,4.58
2022-12-31T08:27:45.450Z,4.94
2022-12-31T08:31:10.608Z,4.99
2022-12-31T08:34:20.899Z,5.18
2022-12-31T08:37:39.882Z,5.11
2022-12-31T08:41:10.062Z,5.20
2022-12-31T08:44:32.372Z,5.24
2022-12-31T08:47:43.896Z,5.29
2022-12-31T08:50:47.824Z,5.46
2022-12-31T08:53:51.781Z,5.53
2022-12-31T08:57:06.718Z,5.53
2022-12-31T09:00:15.182Z,5.73
2022-12-31T09:03:42.185Z,5.74
2022-12-31T09:07:03.124Z,6.00
2022-12-31T09:10:29.409Z,6.95
2022-12-31T09:14:06.111Z,6.83
2022-12-31T09:17:41.506Z,6.73
2022-12-31T09:20:45.558Z,6.60
2022-12-31T09:23:48.625Z,6.36
2022-12-31T09:27:15.960Z,6.57
2022-12-31T09:30:20.250Z,6.19
2022-12-31T09:33:32.482Z,6.49
2022-12-31T09:36:45.957Z,6.42
2022-12-31T09:39:49.539Z,6.59
2022-12-31T09:43:12.566Z,6.77
2022-12-31T09:46:18.189Z,6.53
2022-12-31T09:49:43.012Z,6.55
2022-12-31T09:52:57.673Z,6.73
2022-12-31T09:56:09.671Z,6.61
2022-12-31T09:59:35.288Z,7.02
2022-12-31T10:03:10.863Z,7.07
2022-12-31T10:06:37.697Z,7.59
2022-12-31T10:10:13.265Z,7.38
2022-12-31T10:13:24.943Z,7.21
2022-12-31T10:16:52.064Z,6.92
2022-12-31T10:20:26.268Z,7.11
2022-12-31T10:23:31.942Z,7.12
2022-12-31T10:27:02.319Z,7.19
2022-12-31T10:30:18.945Z,7.02
2022-12-31T10:33:40.266Z,6.89
2022-12-31T10:36:53.018Z,6.89
2022-12-31T10:40:24.745Z,6.87
2022-12-31T10:44:01.632Z,6.90
2022-12-31T10:47:33.277Z,6.67
2022-12-31T10:50:55.272Z,6.75
2022-12-31T10:54:48.756Z,6.52
2022-12-31T10:58:30.660Z,6.78
2022-12-31T11:01:49.513Z,6.81
2022-12-31T11:05:23.151Z,6.68
2022-12-31T11:08:51.552Z,6.57
2022-12-31T11:12:17.347Z,6.45
2022-12-31T11:15:58.988Z,6.78
2022-12-31T11:19:26.753Z,6.52
2022-12-31T11:22:56.835Z,6.56
2022-12-31T11:26:17.656Z,6.55
2022-12-31T11:29:33.190Z,6.42
2022-12-31T11:32:38.790Z,6.38
2022-12-31T11:36:20.409Z,6.46
2022-12-31T11:39:57.388Z,6.38
2022-12-31T11:43:27.968Z,6.55
2022-12-31T11:46:52.064Z,6.72
2022-12-31T11:50:26.530Z,6.84
2022-12-31T11:53:57.709Z,6.62
2022-12-31T11:57:34.881Z,6.69
2022-12-31T12:00:39.669Z,6.62
2022-12-31T12:03:43.842Z,6.69
2022-12-31T12:06:46.538Z,6.69
2022-12-31T12:09:51.583Z,6.73
2022-12-31T12:12:56.531Z,6.77
2022-12-31T12:16:03.318Z,6.92
2022-12-31T12:19:16.606Z,7.12
2022-12-31T12:22:26.482Z,6.98
2022-12-31T12:25:42.148Z,7.05
2022-12-31T12:28:46.164Z,7.12
2022-12-31T12:32:00.921Z,7.18
2022-12-31T12:35:20.028Z,7.46
2022-12-31T12:38:23.834Z,8.23
2022-12-31T12:41:27.731Z,7.62
2022-12-31T12:44:31.623Z,7.61
2022-12-31T12:47:35.252Z,7.80
2022-12-31T12:50:47.230Z,7.98
2022-12-31T12:53:54.728Z,7.94
2022-12-31T12:57:15.425Z,7.76
2022-12-31T13:00:22.538Z,8.18
2022-12-31T13:04:23.725Z,8.21
2022-12-31T13:07:52.939Z,8.22
2022-12-31T13:10:58.507Z,8.16
2022-12-31T13:14:23.188Z,8.12
2022-12-31T13:17:55.040Z,8.13
2022-12-31T13:21:21.377Z,8.30
2022-12-31T13:25:02.582Z,8.22
2022-12-31T13:28:11.792Z,8.26
2022-12-31T13:31:22.846Z,8.65
2022-12-31T13:34:33.788Z,8.77
2022-12-31T13:37:42.005Z,8.56
2022-12-31T13:40:51.830Z,8.48
2022-12-31T13:44:31.235Z,8.75
2022-12-31T13:47:40.855Z,8.74
2022-12-31T13:50:52.437Z,8.61
2022-12-31T13:54:28.584Z,7.97
2022-12-31T13:57:57.381Z,8.01
2022-12-31T14:01:33.429Z,8.14
2022-12-31T14:04:43.438Z,7.87
2022-12-31T14:08:01.879Z,7.81
2022-12-31T14:11:11.028Z,7.87
2022-12-31T14:14:49.957Z,7.88
2022-12-31T14:18:51.254Z,7.87
2022-12-31T14:21:58.388Z,7.93
2022-12-31T14:25:04.022Z,7.88
2022-12-31T14:28:18.765Z,8.03
2022-12-31T14:31:55.922Z,8.16
2022-12-31T14:35:17.121Z,7.94
2022-12-31T14:38:54.068Z,7.99
2022-12-31T14:42:29.167Z,8.03
2022-12-31T14:45:47.581Z,8.05
2022-12-31T14:49:02.145Z,7.93
2022-12-31T14:52:31.675Z,8.14
2022-12-31T14:55:40.705Z,8.11
2022-12-31T14:58:58.424Z,8.03
2022-12-31T15:02:01.389Z,7.95
2022-12-31T15:05:32.445Z,7.95
2022-12-31T15:08:34.997Z,7.99
2022-12-31T15:11:46.862Z,7.92
2022-12-31T15:15:16.537Z,7.84
2022-12-31T15:18:19.766Z,7.83
2022-12-31T15:21:58.199Z,7.83
2022-12-31T15:25:02.099Z,7.78
2022-12-31T15:28:25.787Z,7.65
2022-12-31T15:31:29.978Z,7.73
2022-12-31T15:34:35.361Z,7.99
2022-12-31T15:37:38.402Z,8.04
2022-12-31T15:40:46.902Z,8.03
2022-12-31T15:43:58.476Z,7.93
2022-12-31T15:47:10.135Z,7.82
2022-12-31T15:50:21.688Z,7.78
2022-12-31T15:53:35.989Z,7.92
2022-12-31T15:56:46.414Z,8.13
2022-12-31T15:59:59.126Z,7.95
2022-12-31T16:03:02.799Z,8.08
2022-12-31T16:06:14.680Z,7.96
2022-12-31T16:09:34.320Z,8.39
2022-12-31T16:12:44.679Z,8.13
2022-12-31T16:15:57.064Z,7.90
2022-12-31T16:19:00.571Z,7.80
2022-12-31T16:22:15.478Z,7.89
2022-12-31T16:25:30.548Z,7.85
2022-12-31T16:28:48.945Z,7.96
2022-12-31T16:31:54.086Z,7.76
2022-12-31T16:34:56.798Z,7.76
2022-12-31T16:38:15.443Z,7.84
2022-12-31T16:41:21.199Z,7.85
2022-12-31T16:44:29.029Z,7.53
2022-12-31T16:47:35.570Z,7.41
2022-12-31T16:50:38.666Z,7.35
2022-12-31T16:53:42.134Z,7.38
2022-12-31T16:56:45.486Z,7.45
2022-12-31T16:59:54.618Z,7.47
2022-12-31T17:03:17.897Z,7.60
2022-12-31T17:06:22.574Z,7.94
2022-12-31T17:09:37.842Z,7.72
2022-12-31T17:13:17.445Z,7.46
2022-12-31T17:16:06.917Z,7.43
2022-12-31T17:19:40.067Z,7.33
2022-12-31T17:22:47.034Z,7.46
2022-12-31T17:25:57.575Z,7.39
2022-12-31T17:29:06.186Z,7.31
2022-12-31T17:32:18.241Z,7.25
2022-12-31T17:35:36.913Z,7.44
2022-12-31T17:38:39.684Z,7.23
2022-12-31T17:41:46.120Z,7.26
2022-12-31T17:44:48.962Z,7.50
2022-12-31T17:47:53.989Z,7.64
2022-12-31T17:50:59.661Z,7.61
2022-12-31T17:54:02.639Z,7.68
2022-12-31T17:57:05.987Z,7.82
2022-12-31T18:00:17.424Z,7.69
2022-12-31T18:03:20.762Z,7.76
2022-12-31T18:06:23.417Z,8.01
2022-12-31T18:09:26.304Z,7.82
2022-12-31T18:12:30.255Z,7.78
2022-12-31T18:15:33.463Z,7.67
2022-12-31T18:18:39.929Z,7.94
2022-12-31T18:21:44.864Z,7.98
2022-12-31T18:24:52.365Z,8.01
2022-12-31T18:27:55.355Z,8.02
2022-12-31T18:30:58.690Z,8.09
2022-12-31T18:34:01.638Z,8.08
2022-12-31T18:37:15.191Z,8.10
2022-12-31T18:40:25.603Z,8.20
2022-12-31T18:43:28.277Z,8.09
2022-12-31T18:46:31.168Z,8.01
2022-12-31T18:49:34.106Z,8.02
2022-12-31T18:52:37.492Z,8.19
2022-12-31T18:55:44.405Z,8.22
2022-12-31T18:58:48.012Z,8.19
2022-12-31T19:01:50.954Z,8.33
2022-12-31T19:04:53.874Z,8.19
2022-12-31T19:07:57.052Z,8.10
2022-12-31T19:11:01.868Z,8.08
2022-12-31T19:14:26.661Z,8.23
2022-12-31T19:17:29.793Z,8.11
2022-12-31T19:20:33.747Z,8.12
2022-12-31T19:23:36.615Z,8.12
2022-12-31T19:26:43.430Z,8.11
2022-12-31T19:29:46.707Z,8.53
2022-12-31T19:32:54.351Z,8.18
2022-12-31T19:35:59.319Z,8.13
2022-12-31T19:39:03.912Z,8.05
2022-12-31T19:42:15.053Z,8.00
2022-12-31T19:45:25.718Z,7.86
2022-12-31T19:48:32.564Z,7.93
2022-12-31T19:51:35.509Z,7.93
2022-12-31T19:54:38.474Z,7.93
2022-12-31T19:57:42.241Z,7.96
2022-12-31T20:00:53.932Z,7.90
2022-12-31T20:04:00.301Z,7.95
2022-12-31T20:07:02.996Z,7.87
2022-12-31T20:10:07.238Z,7.79
2022-12-31T20:13:10.007Z,7.81
2022-12-31T20:16:15.882Z,7.79
2022-12-31T20:19:18.927Z,7.73
2022-12-31T20:22:21.940Z,7.71
2022-12-31T20:25:25.703Z,7.75
2022-12-31T20:28:28.718Z,7.70
2022-12-31T20:31:31.475Z,7.66
2022-12-31T20:34:37.263Z,7.66
2022-12-31T20:37:39.899Z,7.63
2022-12-31T20:40:46.644Z,7.67
2022-12-31T20:43:50.847Z,7.68
2022-12-31T20:46:53.898Z,7.66
2022-12-31T20:50:12.623Z,7.60
2022-12-31T20:53:15.936Z,7.67
2022-12-31T20:56:18.949Z,7.76
2022-12-31T20:59:21.929Z,7.78
2022-12-31T21:02:40.396Z,7.74
2022-12-31T21:05:50.360Z,7.82
2022-12-31T21:08:54.939Z,7.80
2022-12-31T21:12:17.032Z,7.78
2022-12-31T21:15:21.792Z,7.81
2022-12-31T21:18:24.720Z,7.89
2022-12-31T21:21:27.421Z,7.80
2022-12-31T21:24:30.467Z,7.81
2022-12-31T21:27:36.092Z,7.84
2022-12-31T21:30:40.042Z,7.79
2022-12-31T21:33:47.438Z,7.78
2022-12-31T21:36:50.287Z,7.76
2022-12-31T21:39:52.721Z,7.78
2022-12-31T21:42:58.363Z,7.69
2022-12-31T21:46:03.913Z,7.67
2022-12-31T21:49:06.774Z,7.63
2022-12-31T21:52:28.447Z,7.63
2022-12-31T21:55:49.656Z,7.66
2022-12-31T21:59:14.689Z,7.63
2022-12-31T22:02:37.847Z,7.60
2022-12-31T22:05:49.960Z,7.49
2022-12-31T22:08:55.138Z,7.56
2022-12-31T22:11:58.028Z,7.23
2022-12-31T22:15:15.631Z,7.23
2022-12-31T22:18:19.171Z,6.93
2022-12-31T22:21:24.432Z,6.67
2022-12-31T22:24:27.268Z,6.76
2022-12-31T22:27:30.188Z,6.55
2022-12-31T22:30:35.031Z,6.54
2022-12-31T22:33:37.914Z,6.52
2022-12-31T22:36:41.011Z,6.27
2022-12-31T22:39:45.153Z,6.41
2022-12-31T22:42:48.128Z,6.49
2022-12-31T22:45:50.649Z,6.38
2022-12-31T22:48:58.423Z,6.45
2022-12-31T22:52:05.598Z,6.62
2022-12-31T22:55:11.602Z,6.55
2022-12-31T22:58:14.297Z,6.73
2022-12-31T23:01:20.419Z,6.73
2022-12-31T23:04:23.399Z,6.66
2022-12-31T23:07:29.227Z,6.73
2022-12-31T23:10:51.204Z,6.73
2022-12-31T23:14:13.002Z,6.82
2022-12-31T23:17:37.408Z,6.79
2022-12-31T23:20:58.948Z,6.73
2022-12-31T23:24:04.592Z,6.74
2022-12-31T23:27:11.125Z,6.55
2022-12-31T23:30:13.775Z,6.43
2022-12-31T23:33:19.835Z,6.13
2022-12-31T23:36:24.364Z,6.02
2022-12-31T23:39:27.169Z,5.86
2022-12-31T23:42:29.970Z,5.87
2022-12-31T23:45:34.143Z,5.95
2022-12-31T23:48:36.693Z,6.08
2022-12-31T23:51:40.353Z,5.80
2022-12-31T23:54:42.861Z,5.93
2022-12-31T23:57:45.976Z,5.94
